sensor_id;sensor_type;location;lat;lon;timestamp;pressure;altitude;pressure_sealevel;temperature;humidity
49657;BME280;71194;38.900;-77.124;2023-09-08T00:00:02;99537.36;;;30.01;49.00
49657;BME280;71194;38.900;-77.124;2023-09-08T00:02:30;99540.44;;;29.92;49.32
49657;BME280;71194;38.900;-77.124;2023-09-08T00:04:58;99546.57;;;29.86;49.51
49657;BME280;71194;38.900;-77.124;2023-09-08T00:07:26;99554.53;;;29.86;49.59
49657;BME280;71194;38.900;-77.124;2023-09-08T00:09:54;99567.00;;;30.06;49.70
49657;BME280;71194;38.900;-77.124;2023-09-08T00:12:21;99578.14;;;30.15;49.52
49657;BME280;71194;38.900;-77.124;2023-09-08T00:14:49;99578.67;;;29.78;49.39
49657;BME280;71194;38.900;-77.124;2023-09-08T00:17:16;99584.11;;;30.17;49.07
49657;BME280;71194;38.900;-77.124;2023-09-08T00:19:44;99585.93;;;30.18;48.94
49657;BME280;71194;38.900;-77.124;2023-09-08T00:22:12;99590.41;;;30.17;48.93
49657;BME280;71194;38.900;-77.124;2023-09-08T00:24:40;99594.57;;;30.35;48.54
49657;BME280;71194;38.900;-77.124;2023-09-08T00:27:08;99599.93;;;30.09;48.63
49657;BME280;71194;38.900;-77.124;2023-09-08T00:29:36;99602.17;;;30.13;48.50
49657;BME280;71194;38.900;-77.124;2023-09-08T00:32:05;99600.12;;;30.32;48.53
49657;BME280;71194;38.900;-77.124;2023-09-08T00:34:33;99607.75;;;30.22;48.56
49657;BME280;71194;38.900;-77.124;2023-09-08T00:37:01;99610.04;;;30.07;48.76
49657;BME280;71194;38.900;-77.124;2023-09-08T00:39:28;99609.76;;;30.01;48.79
49657;BME280;71194;38.900;-77.124;2023-09-08T00:41:57;99612.68;;;30.01;48.69
49657;BME280;71194;38.900;-77.124;2023-09-08T00:44:24;99616.25;;;30.07;48.49
49657;BME280;71194;38.900;-77.124;2023-09-08T00:46:52;99620.22;;;30.05;48.39
49657;BME280;71194;38.900;-77.124;2023-09-08T00:49:20;99624.04;;;29.85;48.72
49657;BME280;71194;38.900;-77.124;2023-09-08T00:51:49;99628.66;;;29.83;48.78
49657;BME280;71194;38.900;-77.124;2023-09-08T00:54:18;99627.71;;;29.82;48.78
49657;BME280;71194;38.900;-77.124;2023-09-08T00:56:47;99625.74;;;29.77;48.87
49657;BME280;71194;38.900;-77.124;2023-09-08T00:59:16;99621.80;;;29.93;48.52
49657;BME280;71194;38.900;-77.124;2023-09-08T01:01:44;99620.47;;;30.03;48.34
49657;BME280;71194;38.900;-77.124;2023-09-08T01:04:12;99620.56;;;29.88;48.58
49657;BME280;71194;38.900;-77.124;2023-09-08T01:06:40;99614.02;;;29.95;48.84
49657;BME280;71194;38.900;-77.124;2023-09-08T01:09:08;99612.89;;;29.86;49.01
49657;BME280;71194;38.900;-77.124;2023-09-08T01:11:37;99621.32;;;30.01;48.81
49657;BME280;71194;38.900;-77.124;2023-09-08T01:14:05;99630.65;;;29.82;48.73
49657;BME280;71194;38.900;-77.124;2023-09-08T01:16:33;99639.84;;;29.42;48.50
49657;BME280;71194;38.900;-77.124;2023-09-08T01:19:01;99643.49;;;30.07;48.08
49657;BME280;71194;38.900;-77.124;2023-09-08T01:22:06;99651.80;;;30.11;47.89
49657;BME280;71194;38.900;-77.124;2023-09-08T01:25:21;99663.20;;;29.81;48.04
49657;BME280;71194;38.900;-77.124;2023-09-08T01:27:51;99676.44;;;30.34;47.87
49657;BME280;71194;38.900;-77.124;2023-09-08T01:30:21;99682.68;;;30.11;47.70
49657;BME280;71194;38.900;-77.124;2023-09-08T01:32:51;99680.54;;;29.87;47.60
49657;BME280;71194;38.900;-77.124;2023-09-08T01:35:20;99677.22;;;29.88;47.47
49657;BME280;71194;38.900;-77.124;2023-09-08T01:37:49;99671.74;;;30.11;47.25
49657;BME280;71194;38.900;-77.124;2023-09-08T01:40:17;99671.56;;;30.32;47.22
49657;BME280;71194;38.900;-77.124;2023-09-08T01:42:45;99678.84;;;30.03;47.29
49657;BME280;71194;38.900;-77.124;2023-09-08T01:45:13;99688.59;;;30.03;47.28
49657;BME280;71194;38.900;-77.124;2023-09-08T01:47:41;99698.23;;;29.87;47.58
49657;BME280;71194;38.900;-77.124;2023-09-08T01:50:10;99702.40;;;29.68;47.49
49657;BME280;71194;38.900;-77.124;2023-09-08T01:52:38;99706.67;;;29.81;47.61
49657;BME280;71194;38.900;-77.124;2023-09-08T01:55:07;99711.50;;;29.78;47.64
49657;BME280;71194;38.900;-77.124;2023-09-08T01:57:35;99712.63;;;29.48;48.12
49657;BME280;71194;38.900;-77.124;2023-09-08T02:00:03;99717.43;;;29.75;48.06
49657;BME280;71194;38.900;-77.124;2023-09-08T02:02:31;99723.58;;;29.54;48.03
49657;BME280;71194;38.900;-77.124;2023-09-08T02:04:59;99727.17;;;29.67;47.93
49657;BME280;71194;38.900;-77.124;2023-09-08T02:07:27;99729.33;;;29.87;47.51
49657;BME280;71194;38.900;-77.124;2023-09-08T02:09:55;99731.71;;;29.91;47.35
49657;BME280;71194;38.900;-77.124;2023-09-08T02:12:23;99736.20;;;30.16;47.28
49657;BME280;71194;38.900;-77.124;2023-09-08T02:14:51;99742.57;;;30.06;47.44
49657;BME280;71194;38.900;-77.124;2023-09-08T02:17:19;99754.67;;;29.78;47.57
49657;BME280;71194;38.900;-77.124;2023-09-08T02:19:46;99767.01;;;29.91;47.33
49657;BME280;71194;38.900;-77.124;2023-09-08T02:22:14;99785.42;;;30.18;47.26
49657;BME280;71194;38.900;-77.124;2023-09-08T02:24:42;99787.80;;;30.03;47.08
49657;BME280;71194;38.900;-77.124;2023-09-08T02:27:09;99798.02;;;29.55;47.01
49657;BME280;71194;38.900;-77.124;2023-09-08T02:29:37;99798.07;;;30.09;46.84
49657;BME280;71194;38.900;-77.124;2023-09-08T02:32:05;99790.25;;;30.09;46.80
49657;BME280;71194;38.900;-77.124;2023-09-08T02:34:35;99780.99;;;30.12;46.73
49657;BME280;71194;38.900;-77.124;2023-09-08T02:37:03;99772.01;;;30.06;46.81
49657;BME280;71194;38.900;-77.124;2023-09-08T02:39:31;99769.18;;;30.07;46.81
49657;BME280;71194;38.900;-77.124;2023-09-08T02:42:02;99772.27;;;30.17;46.64
49657;BME280;71194;38.900;-77.124;2023-09-08T02:44:31;99767.60;;;29.97;46.58
49657;BME280;71194;38.900;-77.124;2023-09-08T02:47:00;99756.95;;;30.21;46.57
49657;BME280;71194;38.900;-77.124;2023-09-08T02:49:28;99752.57;;;30.21;46.59
49657;BME280;71194;38.900;-77.124;2023-09-08T02:51:56;99745.45;;;30.13;46.66
49657;BME280;71194;38.900;-77.124;2023-09-08T02:54:29;99735.96;;;30.10;46.71
49657;BME280;71194;38.900;-77.124;2023-09-08T02:56:57;99728.82;;;30.09;46.75
49657;BME280;71194;38.900;-77.124;2023-09-08T02:59:25;99730.62;;;30.19;46.64
49657;BME280;71194;38.900;-77.124;2023-09-08T03:01:52;99733.10;;;29.98;46.94
49657;BME280;71194;38.900;-77.124;2023-09-08T03:04:20;99732.54;;;30.07;46.74
49657;BME280;71194;38.900;-77.124;2023-09-08T03:06:48;99735.49;;;29.99;46.81
49657;BME280;71194;38.900;-77.124;2023-09-08T03:09:16;99735.43;;;30.00;46.67
49657;BME280;71194;38.900;-77.124;2023-09-08T03:11:44;99730.81;;;29.67;46.88
49657;BME280;71194;38.900;-77.124;2023-09-08T03:14:12;99722.79;;;30.00;46.64
49657;BME280;71194;38.900;-77.124;2023-09-08T03:16:40;99714.31;;;30.01;46.61
49657;BME280;71194;38.900;-77.124;2023-09-08T03:19:07;99696.91;;;29.78;46.56
49657;BME280;71194;38.900;-77.124;2023-09-08T03:21:35;99684.82;;;29.83;46.63
49657;BME280;71194;38.900;-77.124;2023-09-08T03:24:04;99672.91;;;29.71;46.79
49657;BME280;71194;38.900;-77.124;2023-09-08T03:26:32;99671.00;;;29.94;46.74
49657;BME280;71194;38.900;-77.124;2023-09-08T03:29:00;99659.03;;;30.21;46.59
49657;BME280;71194;38.900;-77.124;2023-09-08T03:31:28;99650.98;;;29.26;47.27
49657;BME280;71194;38.900;-77.124;2023-09-08T03:33:55;99644.60;;;29.48;46.99
49657;BME280;71194;38.900;-77.124;2023-09-08T03:36:23;99635.93;;;29.65;46.76
49657;BME280;71194;38.900;-77.124;2023-09-08T03:38:51;99627.29;;;29.57;46.80
49657;BME280;71194;38.900;-77.124;2023-09-08T03:41:19;99626.19;;;29.67;47.04
49657;BME280;71194;38.900;-77.124;2023-09-08T03:43:47;99624.29;;;29.56;46.87
49657;BME280;71194;38.900;-77.124;2023-09-08T03:46:15;99627.23;;;29.27;47.37
49657;BME280;71194;38.900;-77.124;2023-09-08T03:48:43;99629.79;;;29.18;48.19
49657;BME280;71194;38.900;-77.124;2023-09-08T03:51:11;99625.97;;;28.92;48.88
49657;BME280;71194;38.900;-77.124;2023-09-08T03:53:38;99617.76;;;28.97;49.16
49657;BME280;71194;38.900;-77.124;2023-09-08T03:56:07;99614.30;;;29.05;49.19
49657;BME280;71194;38.900;-77.124;2023-09-08T03:58:35;99612.40;;;29.11;49.79
49657;BME280;71194;38.900;-77.124;2023-09-08T04:01:04;99610.31;;;29.05;50.13
49657;BME280;71194;38.900;-77.124;2023-09-08T04:03:31;99610.55;;;28.58;50.65
49657;BME280;71194;38.900;-77.124;2023-09-08T04:05:59;99611.27;;;28.56;50.84
49657;BME280;71194;38.900;-77.124;2023-09-08T04:08:27;99614.37;;;28.65;51.21
49657;BME280;71194;38.900;-77.124;2023-09-08T04:10:55;99622.26;;;28.52;51.57
49657;BME280;71194;38.900;-77.124;2023-09-08T04:13:23;99632.55;;;28.30;52.20
49657;BME280;71194;38.900;-77.124;2023-09-08T04:15:52;99638.64;;;28.44;52.07
49657;BME280;71194;38.900;-77.124;2023-09-08T04:18:19;99644.54;;;28.39;52.18
49657;BME280;71194;38.900;-77.124;2023-09-08T04:20:47;99647.17;;;28.70;51.78
49657;BME280;71194;38.900;-77.124;2023-09-08T04:23:15;99646.66;;;28.52;51.78
49657;BME280;71194;38.900;-77.124;2023-09-08T04:25:43;99656.48;;;28.74;51.89
49657;BME280;71194;38.900;-77.124;2023-09-08T04:28:11;99666.23;;;28.47;52.18
49657;BME280;71194;38.900;-77.124;2023-09-08T04:30:39;99671.30;;;28.92;51.90
49657;BME280;71194;38.900;-77.124;2023-09-08T04:33:07;99681.97;;;28.64;52.52
49657;BME280;71194;38.900;-77.124;2023-09-08T04:35:35;99696.24;;;28.68;52.57
49657;BME280;71194;38.900;-77.124;2023-09-08T04:38:03;99715.29;;;28.74;52.49
49657;BME280;71194;38.900;-77.124;2023-09-08T04:40:31;99731.54;;;28.12;53.15
49657;BME280;71194;38.900;-77.124;2023-09-08T04:42:59;99728.43;;;28.56;53.05
49657;BME280;71194;38.900;-77.124;2023-09-08T04:45:27;99718.33;;;28.73;52.97
49657;BME280;71194;38.900;-77.124;2023-09-08T04:47:55;99717.18;;;29.02;52.81
49657;BME280;71194;38.900;-77.124;2023-09-08T04:50:23;99723.77;;;28.91;52.59
49657;BME280;71194;38.900;-77.124;2023-09-08T04:52:51;99727.78;;;28.98;52.30
49657;BME280;71194;38.900;-77.124;2023-09-08T04:55:19;99736.50;;;28.61;52.50
49657;BME280;71194;38.900;-77.124;2023-09-08T04:57:47;99746.58;;;28.91;52.43
49657;BME280;71194;38.900;-77.124;2023-09-08T05:00:16;99756.82;;;28.55;52.27
49657;BME280;71194;38.900;-77.124;2023-09-08T05:02:44;99759.95;;;28.98;52.39
49657;BME280;71194;38.900;-77.124;2023-09-08T05:05:12;99757.08;;;28.60;52.43
49657;BME280;71194;38.900;-77.124;2023-09-08T05:07:40;99752.75;;;28.93;52.41
49657;BME280;71194;38.900;-77.124;2023-09-08T05:10:08;99756.11;;;28.79;52.57
49657;BME280;71194;38.900;-77.124;2023-09-08T05:12:36;99761.36;;;28.96;52.34
49657;BME280;71194;38.900;-77.124;2023-09-08T05:15:05;99762.44;;;28.63;52.42
49657;BME280;71194;38.900;-77.124;2023-09-08T05:17:33;99767.23;;;28.84;52.36
49657;BME280;71194;38.900;-77.124;2023-09-08T05:20:01;99761.54;;;28.70;52.69
49657;BME280;71194;38.900;-77.124;2023-09-08T05:22:29;99759.42;;;28.65;52.55
49657;BME280;71194;38.900;-77.124;2023-09-08T05:24:57;99761.45;;;28.50;52.93
49657;BME280;71194;38.900;-77.124;2023-09-08T05:27:25;99756.10;;;28.09;53.15
49657;BME280;71194;38.900;-77.124;2023-09-08T05:29:53;99757.66;;;28.46;52.94
49657;BME280;71194;38.900;-77.124;2023-09-08T05:32:21;99762.99;;;28.47;53.05
49657;BME280;71194;38.900;-77.124;2023-09-08T05:34:49;99769.96;;;28.25;53.44
49657;BME280;71194;38.900;-77.124;2023-09-08T05:37:17;99776.83;;;28.55;53.34
49657;BME280;71194;38.900;-77.124;2023-09-08T05:39:45;99784.07;;;28.65;53.23
49657;BME280;71194;38.900;-77.124;2023-09-08T05:42:12;99786.34;;;28.33;52.81
49657;BME280;71194;38.900;-77.124;2023-09-08T05:44:40;99784.50;;;28.46;53.22
49657;BME280;71194;38.900;-77.124;2023-09-08T05:47:08;99785.33;;;28.06;53.95
49657;BME280;71194;38.900;-77.124;2023-09-08T05:49:36;99787.02;;;27.82;54.98
49657;BME280;71194;38.900;-77.124;2023-09-08T05:52:04;99786.62;;;27.67;55.50
49657;BME280;71194;38.900;-77.124;2023-09-08T05:54:32;99782.87;;;27.63;55.43
49657;BME280;71194;38.900;-77.124;2023-09-08T05:57:00;99779.75;;;27.45;56.01
49657;BME280;71194;38.900;-77.124;2023-09-08T05:59:28;99792.16;;;27.54;56.22
49657;BME280;71194;38.900;-77.124;2023-09-08T06:01:56;99797.05;;;27.79;55.80
49657;BME280;71194;38.900;-77.124;2023-09-08T06:04:24;99801.36;;;27.77;56.12
49657;BME280;71194;38.900;-77.124;2023-09-08T06:06:52;99805.55;;;27.49;56.19
49657;BME280;71194;38.900;-77.124;2023-09-08T06:09:20;99801.15;;;27.36;56.10
49657;BME280;71194;38.900;-77.124;2023-09-08T06:11:48;99808.08;;;27.62;55.91
49657;BME280;71194;38.900;-77.124;2023-09-08T06:14:16;99813.92;;;27.17;56.68
49657;BME280;71194;38.900;-77.124;2023-09-08T06:16:44;99817.75;;;27.63;56.56
49657;BME280;71194;38.900;-77.124;2023-09-08T06:19:13;99815.30;;;27.03;56.14
49657;BME280;71194;38.900;-77.124;2023-09-08T06:21:40;99812.90;;;27.10;56.82
49657;BME280;71194;38.900;-77.124;2023-09-08T06:24:08;99803.47;;;27.12;56.90
49657;BME280;71194;38.900;-77.124;2023-09-08T06:26:36;99796.38;;;27.07;57.32
49657;BME280;71194;38.900;-77.124;2023-09-08T06:29:05;99798.51;;;27.04;57.45
49657;BME280;71194;38.900;-77.124;2023-09-08T06:31:32;99797.69;;;27.10;57.03
49657;BME280;71194;38.900;-77.124;2023-09-08T06:34:05;99804.21;;;26.84;57.34
49657;BME280;71194;38.900;-77.124;2023-09-08T06:36:33;99813.48;;;27.07;57.05
49657;BME280;71194;38.900;-77.124;2023-09-08T06:39:01;99817.37;;;27.19;56.71
49657;BME280;71194;38.900;-77.124;2023-09-08T06:41:29;99814.30;;;27.33;56.81
49657;BME280;71194;38.900;-77.124;2023-09-08T06:43:57;99812.60;;;26.94;57.17
49657;BME280;71194;38.900;-77.124;2023-09-08T06:46:25;99808.91;;;27.12;56.88
49657;BME280;71194;38.900;-77.124;2023-09-08T06:48:53;99807.84;;;27.12;57.08
49657;BME280;71194;38.900;-77.124;2023-09-08T06:51:20;99806.55;;;27.02;57.85
49657;BME280;71194;38.900;-77.124;2023-09-08T06:53:54;99798.61;;;26.89;58.24
49657;BME280;71194;38.900;-77.124;2023-09-08T06:56:22;99798.76;;;26.29;58.27
49657;BME280;71194;38.900;-77.124;2023-09-08T06:58:50;99799.81;;;26.93;57.97
49657;BME280;71194;38.900;-77.124;2023-09-08T07:01:18;99793.59;;;26.51;57.74
49657;BME280;71194;38.900;-77.124;2023-09-08T07:03:46;99790.89;;;27.03;57.86
49657;BME280;71194;38.900;-77.124;2023-09-08T07:06:14;99791.75;;;26.94;57.49
49657;BME280;71194;38.900;-77.124;2023-09-08T07:08:41;99790.70;;;27.30;57.14
49657;BME280;71194;38.900;-77.124;2023-09-08T07:11:09;99781.99;;;27.24;56.51
49657;BME280;71194;38.900;-77.124;2023-09-08T07:13:37;99779.31;;;27.24;56.33
49657;BME280;71194;38.900;-77.124;2023-09-08T07:16:06;99786.80;;;27.58;55.91
49657;BME280;71194;38.900;-77.124;2023-09-08T07:18:33;99792.29;;;27.15;55.91
49657;BME280;71194;38.900;-77.124;2023-09-08T07:21:02;99797.00;;;26.95;56.06
49657;BME280;71194;38.900;-77.124;2023-09-08T07:23:30;99799.70;;;26.75;56.47
49657;BME280;71194;38.900;-77.124;2023-09-08T07:25:59;99807.07;;;26.85;56.73
49657;BME280;71194;38.900;-77.124;2023-09-08T07:28:27;99809.39;;;26.72;57.08
49657;BME280;71194;38.900;-77.124;2023-09-08T07:31:01;99809.68;;;26.80;57.17
49657;BME280;71194;38.900;-77.124;2023-09-08T07:33:28;99809.23;;;26.59;57.15
49657;BME280;71194;38.900;-77.124;2023-09-08T07:35:57;99810.18;;;26.70;57.42
49657;BME280;71194;38.900;-77.124;2023-09-08T07:38:25;99817.54;;;26.66;57.35
49657;BME280;71194;38.900;-77.124;2023-09-08T07:40:53;99817.84;;;26.95;56.91
49657;BME280;71194;38.900;-77.124;2023-09-08T07:43:21;99813.59;;;27.08;56.92
49657;BME280;71194;38.900;-77.124;2023-09-08T07:45:48;99815.72;;;27.11;56.24
49657;BME280;71194;38.900;-77.124;2023-09-08T07:48:16;99819.44;;;26.79;56.40
49657;BME280;71194;38.900;-77.124;2023-09-08T07:50:45;99820.65;;;27.52;55.80
49657;BME280;71194;38.900;-77.124;2023-09-08T07:53:12;99825.51;;;27.21;55.56
49657;BME280;71194;38.900;-77.124;2023-09-08T07:55:40;99825.21;;;27.34;55.05
49657;BME280;71194;38.900;-77.124;2023-09-08T07:58:08;99828.35;;;27.36;54.87
49657;BME280;71194;38.900;-77.124;2023-09-08T08:00:37;99827.07;;;27.61;54.93
49657;BME280;71194;38.900;-77.124;2023-09-08T08:03:05;99830.85;;;27.20;55.40
49657;BME280;71194;38.900;-77.124;2023-09-08T08:05:33;99840.76;;;27.20;55.06
49657;BME280;71194;38.900;-77.124;2023-09-08T08:08:01;99842.80;;;27.59;54.66
49657;BME280;71194;38.900;-77.124;2023-09-08T08:10:29;99841.10;;;27.69;54.47
49657;BME280;71194;38.900;-77.124;2023-09-08T08:12:58;99840.22;;;27.62;54.38
49657;BME280;71194;38.900;-77.124;2023-09-08T08:15:36;99846.35;;;27.72;54.66
49657;BME280;71194;38.900;-77.124;2023-09-08T08:18:06;99853.14;;;27.20;55.12
49657;BME280;71194;38.900;-77.124;2023-09-08T08:20:34;99857.32;;;27.34;55.73
49657;BME280;71194;38.900;-77.124;2023-09-08T08:23:02;99855.15;;;27.07;55.68
49657;BME280;71194;38.900;-77.124;2023-09-08T08:25:31;99851.94;;;27.34;55.50
49657;BME280;71194;38.900;-77.124;2023-09-08T08:28:00;99849.56;;;27.13;55.82
49657;BME280;71194;38.900;-77.124;2023-09-08T08:30:28;99853.95;;;26.95;55.74
49657;BME280;71194;38.900;-77.124;2023-09-08T08:32:57;99859.08;;;26.62;56.27
49657;BME280;71194;38.900;-77.124;2023-09-08T08:35:24;99857.20;;;27.02;56.29
49657;BME280;71194;38.900;-77.124;2023-09-08T08:37:52;99853.50;;;26.98;56.32
49657;BME280;71194;38.900;-77.124;2023-09-08T08:40:20;99857.24;;;26.82;56.82
49657;BME280;71194;38.900;-77.124;2023-09-08T08:42:48;99862.70;;;27.14;56.67
49657;BME280;71194;38.900;-77.124;2023-09-08T08:45:23;99857.12;;;27.10;56.77
49657;BME280;71194;38.900;-77.124;2023-09-08T08:47:51;99854.36;;;26.73;57.17
49657;BME280;71194;38.900;-77.124;2023-09-08T08:50:19;99846.72;;;26.72;57.66
49657;BME280;71194;38.900;-77.124;2023-09-08T08:52:48;99840.40;;;26.64;57.60
49657;BME280;71194;38.900;-77.124;2023-09-08T08:55:16;99838.77;;;26.82;57.19
49657;BME280;71194;38.900;-77.124;2023-09-08T08:57:44;99840.74;;;27.07;57.04
49657;BME280;71194;38.900;-77.124;2023-09-08T09:00:14;99842.66;;;27.11;56.86
49657;BME280;71194;38.900;-77.124;2023-09-08T09:02:43;99843.60;;;26.96;57.16
49657;BME280;71194;38.900;-77.124;2023-09-08T09:05:12;99845.18;;;26.92;57.18
49657;BME280;71194;38.900;-77.124;2023-09-08T09:07:41;99846.87;;;26.61;57.91
49657;BME280;71194;38.900;-77.124;2023-09-08T09:10:10;99851.09;;;26.56;57.75
49657;BME280;71194;38.900;-77.124;2023-09-08T09:12:39;99860.34;;;26.87;57.64
49657;BME280;71194;38.900;-77.124;2023-09-08T09:15:08;99860.00;;;27.10;57.11
49657;BME280;71194;38.900;-77.124;2023-09-08T09:17:36;99869.04;;;26.70;57.30
49657;BME280;71194;38.900;-77.124;2023-09-08T09:20:20;99872.69;;;26.73;57.70
49657;BME280;71194;38.900;-77.124;2023-09-08T09:22:48;99874.06;;;26.65;57.38
49657;BME280;71194;38.900;-77.124;2023-09-08T09:25:23;99876.39;;;26.71;56.88
49657;BME280;71194;38.900;-77.124;2023-09-08T09:27:52;99876.39;;;26.36;57.60
49657;BME280;71194;38.900;-77.124;2023-09-08T09:30:21;99874.78;;;26.53;57.43
49657;BME280;71194;38.900;-77.124;2023-09-08T09:32:58;99878.03;;;26.29;57.79
49657;BME280;71194;38.900;-77.124;2023-09-08T09:35:40;99880.18;;;26.24;58.37
49657;BME280;71194;38.900;-77.124;2023-09-08T09:38:09;99876.10;;;26.26;57.98
49657;BME280;71194;38.900;-77.124;2023-09-08T09:40:38;99876.21;;;26.25;57.62
49657;BME280;71194;38.900;-77.124;2023-09-08T09:43:08;99879.68;;;25.73;58.57
49657;BME280;71194;38.900;-77.124;2023-09-08T09:45:37;99881.48;;;25.85;58.94
49657;BME280;71194;38.900;-77.124;2023-09-08T09:48:08;99883.28;;;25.52;59.45
49657;BME280;71194;38.900;-77.124;2023-09-08T09:50:38;99885.98;;;25.52;59.71
49657;BME280;71194;38.900;-77.124;2023-09-08T09:53:10;99884.09;;;25.74;59.30
49657;BME280;71194;38.900;-77.124;2023-09-08T09:55:39;99883.39;;;25.84;59.07
49657;BME280;71194;38.900;-77.124;2023-09-08T09:58:08;99887.92;;;25.81;59.50
49657;BME280;71194;38.900;-77.124;2023-09-08T10:00:37;99890.29;;;25.55;59.63
49657;BME280;71194;38.900;-77.124;2023-09-08T10:03:06;99891.40;;;26.00;59.30
49657;BME280;71194;38.900;-77.124;2023-09-08T10:05:34;99894.40;;;25.76;59.15
49657;BME280;71194;38.900;-77.124;2023-09-08T10:08:03;99899.20;;;25.71;59.32
49657;BME280;71194;38.900;-77.124;2023-09-08T10:10:32;99904.54;;;25.90;58.93
49657;BME280;71194;38.900;-77.124;2023-09-08T10:13:04;99911.57;;;26.34;58.57
49657;BME280;71194;38.900;-77.124;2023-09-08T10:15:34;99922.95;;;25.82;58.62
49657;BME280;71194;38.900;-77.124;2023-09-08T10:18:05;99928.81;;;25.71;58.63
49657;BME280;71194;38.900;-77.124;2023-09-08T10:20:34;99926.34;;;25.71;58.99
49657;BME280;71194;38.900;-77.124;2023-09-08T10:23:10;99921.97;;;25.73;59.08
49657;BME280;71194;38.900;-77.124;2023-09-08T10:25:48;99919.35;;;26.03;58.85
49657;BME280;71194;38.900;-77.124;2023-09-08T10:28:19;99923.33;;;25.51;59.15
49657;BME280;71194;38.900;-77.124;2023-09-08T10:30:48;99924.89;;;26.20;58.86
49657;BME280;71194;38.900;-77.124;2023-09-08T10:33:17;99929.50;;;25.67;58.88
49657;BME280;71194;38.900;-77.124;2023-09-08T10:35:45;99933.25;;;26.19;58.36
49657;BME280;71194;38.900;-77.124;2023-09-08T10:38:31;99929.81;;;26.07;57.86
49657;BME280;71194;38.900;-77.124;2023-09-08T10:41:27;99929.07;;;25.73;58.40
49657;BME280;71194;38.900;-77.124;2023-09-08T10:43:57;99930.91;;;26.05;57.93
49657;BME280;71194;38.900;-77.124;2023-09-08T10:46:27;99924.30;;;26.10;57.64
49657;BME280;71194;38.900;-77.124;2023-09-08T10:49:01;99921.57;;;26.08;57.55
49657;BME280;71194;38.900;-77.124;2023-09-08T10:51:29;99916.46;;;26.11;57.47
49657;BME280;71194;38.900;-77.124;2023-09-08T10:53:57;99915.22;;;26.13;57.45
49657;BME280;71194;38.900;-77.124;2023-09-08T10:56:29;99920.38;;;25.84;57.54
49657;BME280;71194;38.900;-77.124;2023-09-08T10:58:59;99923.11;;;25.86;57.94
49657;BME280;71194;38.900;-77.124;2023-09-08T11:01:27;99925.55;;;25.70;58.19
49657;BME280;71194;38.900;-77.124;2023-09-08T11:03:57;99931.17;;;26.08;58.14
49657;BME280;71194;38.900;-77.124;2023-09-08T11:06:25;99933.33;;;26.01;57.83
49657;BME280;71194;38.900;-77.124;2023-09-08T11:08:53;99941.63;;;26.04;57.65
49657;BME280;71194;38.900;-77.124;2023-09-08T11:11:21;99942.61;;;25.99;57.76
49657;BME280;71194;38.900;-77.124;2023-09-08T11:13:49;99945.59;;;26.03;57.92
49657;BME280;71194;38.900;-77.124;2023-09-08T11:16:17;99949.97;;;26.17;57.60
49657;BME280;71194;38.900;-77.124;2023-09-08T11:18:45;99951.61;;;26.19;57.95
49657;BME280;71194;38.900;-77.124;2023-09-08T11:21:13;99948.21;;;26.46;57.49
49657;BME280;71194;38.900;-77.124;2023-09-08T11:23:41;99949.83;;;26.55;57.38
49657;BME280;71194;38.900;-77.124;2023-09-08T11:26:09;99958.73;;;26.02;57.72
49657;BME280;71194;38.900;-77.124;2023-09-08T11:28:41;99961.35;;;26.33;58.05
49657;BME280;71194;38.900;-77.124;2023-09-08T11:31:11;99962.31;;;26.28;57.82
49657;BME280;71194;38.900;-77.124;2023-09-08T11:33:39;99953.67;;;26.50;57.31
49657;BME280;71194;38.900;-77.124;2023-09-08T11:36:13;99955.52;;;26.90;57.04
49657;BME280;71194;38.900;-77.124;2023-09-08T11:38:43;99958.42;;;26.72;56.72
49657;BME280;71194;38.900;-77.124;2023-09-08T11:41:12;99961.91;;;26.38;56.53
49657;BME280;71194;38.900;-77.124;2023-09-08T11:43:40;99967.14;;;26.91;56.86
49657;BME280;71194;38.900;-77.124;2023-09-08T11:46:08;99969.50;;;27.19;56.25
49657;BME280;71194;38.900;-77.124;2023-09-08T11:48:37;99971.20;;;27.03;56.26
49657;BME280;71194;38.900;-77.124;2023-09-08T11:51:07;99973.21;;;27.18;55.80
49657;BME280;71194;38.900;-77.124;2023-09-08T11:53:35;99976.13;;;26.97;55.00
49657;BME280;71194;38.900;-77.124;2023-09-08T11:56:05;99984.11;;;27.23;54.64
49657;BME280;71194;38.900;-77.124;2023-09-08T11:58:33;99983.06;;;27.33;54.56
49657;BME280;71194;38.900;-77.124;2023-09-08T12:01:03;99979.09;;;27.34;54.80
49657;BME280;71194;38.900;-77.124;2023-09-08T12:03:31;99975.83;;;27.31;54.87
49657;BME280;71194;38.900;-77.124;2023-09-08T12:05:59;99970.67;;;27.30;54.86
49657;BME280;71194;38.900;-77.124;2023-09-08T12:08:28;99973.09;;;27.09;54.68
49657;BME280;71194;38.900;-77.124;2023-09-08T12:10:56;99970.75;;;27.19;54.87
49657;BME280;71194;38.900;-77.124;2023-09-08T12:13:24;99974.18;;;26.91;55.28
49657;BME280;71194;38.900;-77.124;2023-09-08T12:15:52;99975.90;;;27.38;54.71
49657;BME280;71194;38.900;-77.124;2023-09-08T12:18:37;99974.74;;;27.41;54.29
49657;BME280;71194;38.900;-77.124;2023-09-08T12:21:05;99975.83;;;27.19;54.30
49657;BME280;71194;38.900;-77.124;2023-09-08T12:23:33;99979.69;;;27.22;54.19
49657;BME280;71194;38.900;-77.124;2023-09-08T12:26:01;99977.79;;;27.05;54.77
49657;BME280;71194;38.900;-77.124;2023-09-08T12:28:31;99977.54;;;27.25;54.65
49657;BME280;71194;38.900;-77.124;2023-09-08T12:30:59;99977.44;;;27.54;54.48
49657;BME280;71194;38.900;-77.124;2023-09-08T12:33:27;99975.39;;;27.89;54.08
49657;BME280;71194;38.900;-77.124;2023-09-08T12:35:55;99977.52;;;28.07;53.46
49657;BME280;71194;38.900;-77.124;2023-09-08T12:38:23;99979.64;;;27.90;53.15
49657;BME280;71194;38.900;-77.124;2023-09-08T12:40:51;99982.78;;;27.16;54.08
49657;BME280;71194;38.900;-77.124;2023-09-08T12:43:19;99984.15;;;27.45;53.74
49657;BME280;71194;38.900;-77.124;2023-09-08T12:45:46;99983.58;;;27.71;53.25
49657;BME280;71194;38.900;-77.124;2023-09-08T12:48:14;99986.12;;;28.03;53.07